This is the latest recevied weather packets stored in our database for station/object EB2GLU-13. If no packets are shown the sender has not sent any weather packets the latest 10 day(s).
| Time | Temp. | Humidity | Pressure | Rain* | Wind** | Luminosity | Snow |
|---|---|---|---|---|---|---|---|
| 1777392413 | 18.33° C | 82% | 1009.7 hPa | 0 mm | - | - | - |
| 1777391662 | 19.44° C | 80% | 1010 hPa | 0 mm | - | - | - |
| 1777390912 | 19.44° C | 79% | 1010 hPa | 0 mm | - | - | - |
| 1777390162 | 20° C | 78% | 1010 hPa | 0 mm | - | - | - |
| 1777389412 | 19.44° C | 80% | 1009.9 hPa | 0 mm | - | - | - |
| 1777387912 | 20.56° C | 77% | 1009.9 hPa | 0 mm | - | - | - |
| 1777387162 | 20.56° C | 77% | 1010.1 hPa | 0 mm | - | - | - |
| 1777386412 | 21.11° C | 75% | 1010.4 hPa | 0 mm | - | - | - |
| 1777385662 | 21.67° C | 73% | 1010.4 hPa | 0 mm | - | - | - |
| 1777384912 | 22.22° C | 73% | 1010.6 hPa | 0 mm | - | - | - |
| 1777384162 | 21.67° C | 75% | 1010.9 hPa | 0 mm | - | - | - |
| 1777383412 | 23.33° C | 70% | 1010.9 hPa | 0 mm | - | - | - |
| 1777382662 | 22.22° C | 71% | 1011 hPa | 0 mm | - | - | - |
| 1777381912 | 23.33° C | 69% | 1011 hPa | 0 mm | - | - | - |
| 1777381162 | 23.89° C | 67% | 1010.9 hPa | 0 mm | - | - | - |
| 1777380412 | 23.33° C | 70% | 1011.3 hPa | 0 mm | - | - | - |
| 1777379662 | 23.89° C | 68% | 1011.6 hPa | 0 mm | - | - | - |
| 1777378912 | 23.33° C | 70% | 1011.5 hPa | 0 mm | - | - | - |
| 1777378162 | 22.22° C | 73% | 1011.6 hPa | 0 mm | - | - | - |
| 1777377412 | 21.11° C | 75% | 1011.9 hPa | 0 mm | - | - | - |
| 1777376662 | 21.67° C | 72% | 1011.8 hPa | 0 mm | - | - | - |
| 1777375912 | 23.33° C | 68% | 1011.8 hPa | 0 mm | - | - | - |
| 1777375162 | 21.67° C | 74% | 1012 hPa | 0 mm | - | - | - |
| 1777374411 | 20° C | 78% | 1012.3 hPa | 0 mm | - | - | - |
| 1777373662 | 20° C | 78% | 1012.5 hPa | 0 mm | - | - | - |
* Rain latest hour (hover to see other rain measurements)
** Current wind speed in m/s (hover to see current wind gust speed)